Time;durP1;ratioP1;P1;durP2;ratioP2;P2;SDS_P1;SDS_P2;PMS_P1;PMS_P2;Temp;Humidity;BMP_temperature;BMP_pressure;BME280_temperature;BME280_humidity;BME280_pressure;Samples;Min_cycle;Max_cycle;Signal;HPM_P1;HPM_P2
2022/05/27 00:01:09;;;;;;;0.77;0.57;;;;;;;;;;5141664;27;20449;-59
2022/05/27 00:03:37;;;;;;;0.60;0.60;;;;;;;;;;5140941;27;20685;-59
2022/05/27 00:06:05;;;;;;;0.63;0.50;;;;;;;;;;5141402;27;20682;-60
2022/05/27 00:08:34;;;;;;;0.65;0.60;;;;;;;;;;5141224;27;20291;-60
2022/05/27 00:11:02;;;;;;;0.65;0.65;;;;;;;;;;5141030;27;20213;-59
2022/05/27 00:13:30;;;;;;;0.43;0.40;;;;;;;;;;5140254;27;20549;-60
2022/05/27 00:16:00;;;;;;;0.70;0.70;;;;;;;;;;5140782;27;20194;-61
2022/05/27 00:18:29;;;;;;;0.60;0.60;;;;;;;;;;5141049;27;20213;-61
2022/05/27 00:20:57;;;;;;;0.90;0.68;;;;;;;;;;5141221;27;20202;-62
2022/05/27 00:23:25;;;;;;;0.63;0.63;;;;;;;;;;5141350;27;20304;-61
2022/05/27 00:25:53;;;;;;;1.40;0.60;;;;;;;;;;5140627;27;20221;-60
2022/05/27 00:28:21;;;;;;;0.70;0.70;;;;;;;;;;5140826;27;20213;-61
2022/05/27 00:30:48;;;;;;;1.00;0.75;;;;;;;;;;5141189;27;20194;-60
2022/05/27 00:33:16;;;;;;;0.75;0.70;;;;;;;;;;5141173;27;20221;-61
2022/05/27 00:35:43;;;;;;;0.70;0.70;;;;;;;;;;5140728;27;20198;-61
2022/05/27 00:38:12;;;;;;;1.13;0.80;;;;;;;;;;5140276;27;20197;-61
2022/05/27 00:40:40;;;;;;;0.70;0.70;;;;;;;;;;5140198;27;20475;-61
2022/05/27 00:43:09;;;;;;;0.70;0.70;;;;;;;;;;5141143;27;20202;-60
2022/05/27 00:45:37;;;;;;;0.88;0.60;;;;;;;;;;5140547;27;20228;-60
2022/05/27 00:48:07;;;;;;;0.77;0.75;;;;;;;;;;5140203;27;20207;-61
2022/05/27 00:50:36;;;;;;;1.45;0.80;;;;;;;;;;5138641;27;20202;-61
2022/05/27 00:53:04;;;;;;;0.80;0.80;;;;;;;;;;5138514;27;20221;-60
2022/05/27 00:55:34;;;;;;;0.60;0.60;;;;;;;;;;5138626;27;20297;-62
2022/05/27 00:58:04;;;;;;;0.80;0.80;;;;;;;;;;5139074;27;20206;-61
2022/05/27 01:00:33;;;;;;;0.77;0.77;;;;;;;;;;5139102;27;20513;-61
2022/05/27 01:03:00;;;;;;;1.00;0.80;;;;;;;;;;5138976;27;20199;-60
2022/05/27 01:05:28;;;;;;;0.98;0.70;;;;;;;;;;5139573;27;20222;-61
2022/05/27 01:07:57;;;;;;;0.60;0.60;;;;;;;;;;5139140;27;20652;-61
2022/05/27 01:10:25;;;;;;;0.88;0.70;;;;;;;;;;5138531;27;20202;-61
2022/05/27 01:12:58;;;;;;;0.85;0.70;;;;;;;;;;5139097;27;20202;-61
2022/05/27 01:15:30;;;;;;;0.60;0.60;;;;;;;;;;5138663;27;20228;-61
2022/05/27 01:18:04;;;;;;;0.80;0.70;;;;;;;;;;5139443;27;20194;-61
2022/05/27 01:20:40;;;;;;;0.90;0.70;;;;;;;;;;5138388;27;20194;-61
2022/05/27 01:23:28;;;;;;;0.60;0.60;;;;;;;;;;5138783;27;20491;-61
2022/05/27 01:26:10;;;;;;;0.80;0.77;;;;;;;;;;5139045;27;20222;-61
2022/05/27 01:28:43;;;;;;;0.80;0.80;;;;;;;;;;5139099;27;20206;-61
2022/05/27 01:31:31;;;;;;;0.98;0.88;;;;;;;;;;5138514;27;20210;-61
2022/05/27 01:34:05;;;;;;;1.00;0.80;;;;;;;;;;5134161;27;20494;-61
2022/05/27 01:36:37;;;;;;;0.68;0.68;;;;;;;;;;5138652;27;20300;-60
2022/05/27 01:39:07;;;;;;;1.55;0.80;;;;;;;;;;5138941;27;20205;-61
2022/05/27 01:41:40;;;;;;;0.90;0.80;;;;;;;;;;5138983;27;20210;-61
2022/05/27 01:44:11;;;;;;;0.60;0.60;;;;;;;;;;5138713;27;20573;-60
2022/05/27 01:46:41;;;;;;;1.33;0.70;;;;;;;;;;5139442;27;20228;-61
2022/05/27 01:49:14;;;;;;;0.98;0.88;;;;;;;;;;5139138;27;20221;-61
2022/05/27 01:51:42;;;;;;;0.77;0.77;;;;;;;;;;5139534;27;20225;-61
2022/05/27 01:54:13;;;;;;;0.98;0.88;;;;;;;;;;5139629;27;20206;-61
2022/05/27 01:56:42;;;;;;;1.00;0.70;;;;;;;;;;5139155;27;20245;-61
2022/05/27 01:59:11;;;;;;;1.10;0.82;;;;;;;;;;5139693;27;20689;-60
2022/05/27 02:01:41;;;;;;;0.70;0.70;;;;;;;;;;5139333;27;20202;-61
2022/05/27 02:04:12;;;;;;;0.73;0.70;;;;;;;;;;5139605;27;20212;-61
2022/05/27 02:06:44;;;;;;;0.80;0.80;;;;;;;;;;5138945;27;20226;-61
2022/05/27 02:09:14;;;;;;;1.02;0.80;;;;;;;;;;5139633;27;20202;-61
2022/05/27 02:11:43;;;;;;;1.10;0.90;;;;;;;;;;5139233;27;20212;-61
2022/05/27 02:14:12;;;;;;;0.75;0.75;;;;;;;;;;5138938;27;20198;-60
2022/05/27 02:16:43;;;;;;;0.80;0.80;;;;;;;;;;5138846;27;20581;-59
2022/05/27 02:19:12;;;;;;;0.80;0.80;;;;;;;;;;5139321;27;20284;-59
2022/05/27 02:21:44;;;;;;;0.80;0.73;;;;;;;;;;5138755;27;20206;-59
2022/05/27 02:24:13;;;;;;;0.95;0.82;;;;;;;;;;5138705;27;20214;-60
2022/05/27 02:26:42;;;;;;;0.98;0.93;;;;;;;;;;5138891;27;20233;-60
2022/05/27 02:29:12;;;;;;;0.80;0.80;;;;;;;;;;5138767;27;20214;-60
2022/05/27 02:31:40;;;;;;;0.73;0.73;;;;;;;;;;5139362;27;20202;-60
2022/05/27 02:36:57;;;;;;;0.93;0.80;;;;;;;;;;5139069;27;20641;-60
2022/05/27 02:39:25;;;;;;;0.90;0.90;;;;;;;;;;5138948;27;20206;-60
2022/05/27 02:41:58;;;;;;;0.82;0.80;;;;;;;;;;5138451;27;20202;-60
2022/05/27 02:44:29;;;;;;;0.60;0.60;;;;;;;;;;5138812;28;20202;-60
2022/05/27 02:47:03;;;;;;;0.85;0.77;;;;;;;;;;5138568;28;20226;-60
2022/05/27 02:49:33;;;;;;;0.85;0.85;;;;;;;;;;5139221;28;20263;-60
2022/05/27 02:52:07;;;;;;;0.98;0.80;;;;;;;;;;5139135;28;20202;-60
2022/05/27 02:54:38;;;;;;;0.95;0.82;;;;;;;;;;5138971;28;20221;-60
2022/05/27 02:57:07;;;;;;;0.80;0.80;;;;;;;;;;5138710;28;20226;-61
2022/05/27 02:59:36;;;;;;;1.00;0.73;;;;;;;;;;5138409;28;20213;-60
2022/05/27 03:02:07;;;;;;;0.85;0.85;;;;;;;;;;5138531;28;20202;-60
2022/05/27 03:04:35;;;;;;;0.80;0.80;;;;;;;;;;5138599;28;20214;-60
2022/05/27 03:07:11;;;;;;;1.02;0.70;;;;;;;;;;5136960;28;20608;-60
2022/05/27 03:09:44;;;;;;;0.70;0.70;;;;;;;;;;5137976;28;20201;-60
2022/05/27 03:12:15;;;;;;;0.70;0.70;;;;;;;;;;5138282;28;20214;-60
2022/05/27 03:15:00;;;;;;;1.08;0.90;;;;;;;;;;5138781;28;20634;-59
2022/05/27 03:17:34;;;;;;;0.70;0.70;;;;;;;;;;5138704;28;20198;-60
2022/05/27 03:20:10;;;;;;;0.90;0.90;;;;;;;;;;5138501;28;20201;-60
2022/05/27 03:22:45;;;;;;;0.88;0.80;;;;;;;;;;5138468;28;20206;-60
2022/05/27 03:25:19;;;;;;;0.63;0.63;;;;;;;;;;5138448;28;20460;-60
2022/05/27 03:27:49;;;;;;;1.38;0.80;;;;;;;;;;5138415;28;20612;-61
2022/05/27 03:30:18;;;;;;;0.98;0.85;;;;;;;;;;5138463;28;20214;-59
2022/05/27 03:32:48;;;;;;;1.00;0.80;;;;;;;;;;5138455;28;20206;-60
2022/05/27 03:35:19;;;;;;;1.40;1.00;;;;;;;;;;5138255;28;20604;-59
2022/05/27 03:37:50;;;;;;;0.82;0.75;;;;;;;;;;5138492;28;20593;-60
2022/05/27 03:40:23;;;;;;;0.70;0.70;;;;;;;;;;5138103;28;20202;-60
2022/05/27 03:42:51;;;;;;;0.80;0.80;;;;;;;;;;5138137;28;20206;-60
2022/05/27 03:45:19;;;;;;;0.75;0.70;;;;;;;;;;5138022;28;20576;-60
2022/05/27 03:47:46;;;;;;;0.80;0.80;;;;;;;;;;5137961;28;20263;-59
2022/05/27 03:50:16;;;;;;;1.42;0.75;;;;;;;;;;5138945;28;20573;-60
2022/05/27 03:52:44;;;;;;;0.80;0.80;;;;;;;;;;5138083;27;20214;-60
2022/05/27 03:55:14;;;;;;;0.95;0.70;;;;;;;;;;5141674;27;20203;-60
2022/05/27 03:57:42;;;;;;;0.90;0.73;;;;;;;;;;5141716;27;20325;-60
2022/05/27 04:00:10;;;;;;;0.75;0.75;;;;;;;;;;5141396;27;20198;-59
2022/05/27 04:02:37;;;;;;;1.60;0.90;;;;;;;;;;5141546;27;20597;-59
2022/05/27 04:05:06;;;;;;;0.73;0.73;;;;;;;;;;5141566;27;20221;-60
2022/05/27 04:07:33;;;;;;;0.85;0.70;;;;;;;;;;5141144;27;20222;-59
2022/05/27 04:10:01;;;;;;;0.93;0.90;;;;;;;;;;5141290;27;20267;-62
2022/05/27 04:12:29;;;;;;;0.93;0.88;;;;;;;;;;5140357;27;20481;-60
2022/05/27 04:14:57;;;;;;;0.90;0.88;;;;;;;;;;5140628;27;20210;-60
2022/05/27 04:17:34;;;;;;;0.88;0.80;;;;;;;;;;5140442;27;20195;-60
2022/05/27 04:20:02;;;;;;;1.17;0.85;;;;;;;;;;5140393;27;20262;-60
2022/05/27 04:22:29;;;;;;;1.20;0.75;;;;;;;;;;5140609;27;20202;-60
2022/05/27 04:24:58;;;;;;;1.10;0.90;;;;;;;;;;5141027;27;20213;-60
2022/05/27 04:27:26;;;;;;;1.05;0.90;;;;;;;;;;5140286;27;20229;-60
2022/05/27 04:29:55;;;;;;;0.90;0.90;;;;;;;;;;5140535;27;20237;-60
2022/05/27 04:32:25;;;;;;;1.35;1.00;;;;;;;;;;5140860;27;20203;-59
2022/05/27 04:34:52;;;;;;;1.15;1.05;;;;;;;;;;5140814;27;20203;-60
2022/05/27 04:37:20;;;;;;;0.88;0.80;;;;;;;;;;5140363;27;20577;-60
2022/05/27 04:39:48;;;;;;;0.85;0.75;;;;;;;;;;5140228;27;20247;-60
2022/05/27 04:42:15;;;;;;;1.50;0.98;;;;;;;;;;5141090;27;20240;-60
2022/05/27 04:44:43;;;;;;;1.17;0.82;;;;;;;;;;5140859;27;20275;-60
2022/05/27 04:47:12;;;;;;;1.45;0.95;;;;;;;;;;5139764;27;20228;-60
2022/05/27 04:49:53;;;;;;;0.80;0.80;;;;;;;;;;5140149;27;20198;-60
2022/05/27 04:52:21;;;;;;;1.13;0.85;;;;;;;;;;5140112;27;20469;-59
2022/05/27 04:54:49;;;;;;;1.00;0.90;;;;;;;;;;5140099;27;20202;-60
2022/05/27 04:57:17;;;;;;;0.80;0.80;;;;;;;;;;5139913;27;20241;-60
2022/05/27 04:59:46;;;;;;;1.10;1.00;;;;;;;;;;5140212;27;20203;-60
2022/05/27 05:02:15;;;;;;;1.02;0.93;;;;;;;;;;5139780;27;20285;-59
2022/05/27 05:04:42;;;;;;;1.38;0.95;;;;;;;;;;5140057;27;20523;-60
2022/05/27 05:07:10;;;;;;;1.08;0.95;;;;;;;;;;5139822;27;20222;-60
2022/05/27 05:09:38;;;;;;;1.27;1.10;;;;;;;;;;5140137;27;20202;-59
2022/05/27 05:12:06;;;;;;;0.82;0.80;;;;;;;;;;5139811;27;20204;-59
2022/05/27 05:14:34;;;;;;;1.00;0.90;;;;;;;;;;5140202;27;20597;-60
2022/05/27 05:17:01;;;;;;;1.05;0.90;;;;;;;;;;5139938;27;20202;-59
2022/05/27 05:19:30;;;;;;;1.05;0.95;;;;;;;;;;5139682;27;20202;-60
2022/05/27 05:21:57;;;;;;;2.05;0.95;;;;;;;;;;5139933;27;20209;-61
2022/05/27 05:24:25;;;;;;;1.30;1.08;;;;;;;;;;5140430;27;20473;-60
2022/05/27 05:26:53;;;;;;;1.55;1.25;;;;;;;;;;5139955;27;20233;-60
2022/05/27 05:29:20;;;;;;;1.13;1.02;;;;;;;;;;5139197;27;20530;-60
2022/05/27 05:31:47;;;;;;;0.98;0.90;;;;;;;;;;5139462;27;20466;-60
2022/05/27 05:34:15;;;;;;;1.00;0.90;;;;;;;;;;5139148;27;20464;-59
2022/05/27 05:36:43;;;;;;;1.40;1.10;;;;;;;;;;5139698;27;20198;-60
2022/05/27 05:39:11;;;;;;;1.30;1.20;;;;;;;;;;5138863;27;20211;-59
2022/05/27 05:41:40;;;;;;;1.20;1.10;;;;;;;;;;5138931;27;20206;-60
2022/05/27 05:44:08;;;;;;;1.52;1.20;;;;;;;;;;5139570;27;20500;-59
2022/05/27 05:46:37;;;;;;;0.90;0.90;;;;;;;;;;5138424;27;20272;-60
2022/05/27 05:49:05;;;;;;;1.40;1.15;;;;;;;;;;5139001;27;20202;-60
2022/05/27 05:51:33;;;;;;;1.10;1.00;;;;;;;;;;5139401;27;20209;-61
2022/05/27 05:54:02;;;;;;;1.15;1.05;;;;;;;;;;5139247;27;20602;-60
2022/05/27 05:56:33;;;;;;;1.10;1.00;;;;;;;;;;5138698;27;20237;-60
2022/05/27 05:59:01;;;;;;;1.20;1.02;;;;;;;;;;5138626;27;20634;-60
2022/05/27 06:01:29;;;;;;;1.23;1.10;;;;;;;;;;5138808;27;20260;-60
2022/05/27 06:03:56;;;;;;;1.80;1.10;;;;;;;;;;5138670;27;20705;-60
2022/05/27 06:06:23;;;;;;;1.52;1.20;;;;;;;;;;5138035;27;20561;-60
2022/05/27 06:08:51;;;;;;;1.13;1.00;;;;;;;;;;5138755;27;20509;-59
2022/05/27 06:11:21;;;;;;;1.17;1.00;;;;;;;;;;5138368;27;20509;-59
2022/05/27 06:13:48;;;;;;;1.45;1.20;;;;;;;;;;5138588;27;20202;-59
2022/05/27 06:16:15;;;;;;;1.50;1.20;;;;;;;;;;5137191;27;20202;-60
2022/05/27 06:18:43;;;;;;;1.27;1.10;;;;;;;;;;5138607;27;20200;-59
2022/05/27 06:21:11;;;;;;;1.33;1.10;;;;;;;;;;5137931;27;20202;-60
2022/05/27 06:23:38;;;;;;;1.40;1.05;;;;;;;;;;5138071;27;20209;-59
2022/05/27 06:26:07;;;;;;;1.35;1.20;;;;;;;;;;5138514;27;20205;-59
2022/05/27 06:34:25;;;;;;;1.90;1.30;;;;;;;;;;5135458;27;20250;-60
2022/05/27 06:36:54;;;;;;;2.08;1.50;;;;;;;;;;5136295;27;20252;-60
2022/05/27 06:39:22;;;;;;;1.63;1.17;;;;;;;;;;5137607;27;20520;-60
2022/05/27 06:41:50;;;;;;;2.92;1.13;;;;;;;;;;5138121;27;20216;-60
2022/05/27 06:44:19;;;;;;;1.38;1.10;;;;;;;;;;5137442;27;20202;-60
2022/05/27 06:46:49;;;;;;;2.53;0.95;;;;;;;;;;5137121;28;20262;-59
2022/05/27 06:49:17;;;;;;;3.40;1.23;;;;;;;;;;5137429;28;20208;-60
2022/05/27 06:51:45;;;;;;;2.15;1.15;;;;;;;;;;5136510;28;20202;-60
2022/05/27 06:54:12;;;;;;;2.65;1.15;;;;;;;;;;5136837;28;20202;-60
2022/05/27 06:56:41;;;;;;;2.67;1.20;;;;;;;;;;5136262;28;20645;-60
2022/05/27 06:59:09;;;;;;;1.05;0.95;;;;;;;;;;5135569;28;20195;-59
2022/05/27 07:01:38;;;;;;;1.40;1.15;;;;;;;;;;5136262;28;20194;-59
2022/05/27 07:04:06;;;;;;;1.45;1.10;;;;;;;;;;5136218;28;20190;-60
2022/05/27 07:06:34;;;;;;;1.20;1.10;;;;;;;;;;5136408;28;20202;-59
2022/05/27 07:09:06;;;;;;;2.03;1.30;;;;;;;;;;5136532;28;20226;-59
2022/05/27 07:11:34;;;;;;;3.00;1.20;;;;;;;;;;5135933;28;20228;-59
2022/05/27 07:14:01;;;;;;;1.70;1.13;;;;;;;;;;5135981;28;20211;-59
2022/05/27 07:16:29;;;;;;;2.85;1.20;;;;;;;;;;5135628;28;20202;-59
2022/05/27 07:18:58;;;;;;;2.25;1.20;;;;;;;;;;5135890;28;20207;-61
2022/05/27 07:21:26;;;;;;;1.77;1.20;;;;;;;;;;5136241;28;20232;-60
2022/05/27 07:23:54;;;;;;;1.55;1.10;;;;;;;;;;5137055;28;20215;-59
2022/05/27 07:26:21;;;;;;;2.97;1.30;;;;;;;;;;5136231;28;20611;-60
2022/05/27 07:28:48;;;;;;;1.40;1.00;;;;;;;;;;5138265;27;20345;-59
2022/05/27 07:31:17;;;;;;;1.40;1.30;;;;;;;;;;5139493;27;20205;-60
2022/05/27 07:33:45;;;;;;;2.47;1.10;;;;;;;;;;5140798;27;20570;-60
2022/05/27 07:36:14;;;;;;;1.90;1.33;;;;;;;;;;5139293;27;20203;-60
2022/05/27 07:38:42;;;;;;;2.28;1.20;;;;;;;;;;5139668;27;20550;-60
2022/05/27 07:41:09;;;;;;;1.48;1.20;;;;;;;;;;5139914;27;20202;-59
2022/05/27 07:43:37;;;;;;;1.48;1.05;;;;;;;;;;5138531;27;20194;-60
2022/05/27 07:46:05;;;;;;;1.42;1.13;;;;;;;;;;5139494;27;20202;-60
2022/05/27 07:48:32;;;;;;;1.42;1.30;;;;;;;;;;5140345;27;20282;-59
2022/05/27 07:50:59;;;;;;;1.98;1.23;;;;;;;;;;5140030;27;20201;-60
2022/05/27 07:53:28;;;;;;;2.83;1.30;;;;;;;;;;5139376;27;20234;-61
2022/05/27 07:55:55;;;;;;;2.30;1.20;;;;;;;;;;5139287;27;20241;-60
2022/05/27 07:58:23;;;;;;;2.40;1.50;;;;;;;;;;5138598;27;20198;-60
2022/05/27 08:00:50;;;;;;;1.27;1.17;;;;;;;;;;5139171;27;20519;-59
2022/05/27 08:03:19;;;;;;;1.40;1.20;;;;;;;;;;5138932;27;20233;-60
2022/05/27 08:05:46;;;;;;;1.70;1.00;;;;;;;;;;5138675;27;20262;-60
2022/05/27 08:08:13;;;;;;;1.98;1.40;;;;;;;;;;5138755;27;20222;-60
2022/05/27 08:10:43;;;;;;;1.30;1.20;;;;;;;;;;5139252;27;20209;-61
2022/05/27 08:13:10;;;;;;;1.08;1.00;;;;;;;;;;5139980;27;20300;-60
2022/05/27 08:15:38;;;;;;;1.90;1.35;;;;;;;;;;5139651;27;20297;-60
2022/05/27 08:18:05;;;;;;;1.70;1.20;;;;;;;;;;5139892;27;20209;-60
2022/05/27 08:20:34;;;;;;;1.15;1.05;;;;;;;;;;5139612;27;20195;-60
2022/05/27 08:23:02;;;;;;;1.45;1.30;;;;;;;;;;5139600;27;20217;-60
2022/05/27 08:25:30;;;;;;;2.08;1.10;;;;;;;;;;5139691;27;20305;-60
2022/05/27 08:27:59;;;;;;;2.15;1.40;;;;;;;;;;5138549;27;20222;-60
2022/05/27 08:30:28;;;;;;;2.25;1.23;;;;;;;;;;5138073;27;20212;-60
2022/05/27 08:32:55;;;;;;;1.00;0.90;;;;;;;;;;5138667;27;20465;-60
2022/05/27 08:38:10;;;;;;;2.05;1.52;;;;;;;;;;5136775;27;20225;-60
2022/05/27 08:40:45;;;;;;;1.90;1.20;;;;;;;;;;5136926;27;20202;-60
2022/05/27 08:43:19;;;;;;;2.17;1.27;;;;;;;;;;5137367;27;20206;-59
2022/05/27 08:45:54;;;;;;;1.98;1.08;;;;;;;;;;5136744;27;20279;-60
2022/05/27 08:48:22;;;;;;;2.38;1.40;;;;;;;;;;5136133;27;20213;-60
2022/05/27 08:50:52;;;;;;;1.92;1.38;;;;;;;;;;5135934;27;20217;-59
2022/05/27 08:53:26;;;;;;;1.77;1.40;;;;;;;;;;5136938;27;20213;-59
2022/05/27 09:01:30;;;;;;;1.30;1.20;;;;;;;;;;5136449;27;20185;-60
2022/05/27 09:04:00;;;;;;;2.17;1.50;;;;;;;;;;5135566;27;20201;-60
2022/05/27 09:06:32;;;;;;;1.33;1.23;;;;;;;;;;5136035;27;20202;-60
2022/05/27 09:09:00;;;;;;;1.88;1.40;;;;;;;;;;5136466;27;20226;-60
2022/05/27 09:11:31;;;;;;;1.48;1.38;;;;;;;;;;5135909;27;20229;-60
2022/05/27 09:14:07;;;;;;;1.60;1.30;;;;;;;;;;5135866;27;20202;-60
2022/05/27 09:16:38;;;;;;;1.40;1.30;;;;;;;;;;5114268;28;20221;-60
2022/05/27 09:19:07;;;;;;;1.50;1.40;;;;;;;;;;5115245;28;20469;-60
2022/05/27 09:21:38;;;;;;;1.88;1.40;;;;;;;;;;5115420;28;20195;-60
2022/05/27 09:24:18;;;;;;;1.40;1.30;;;;;;;;;;5115435;28;20260;-59
2022/05/27 09:26:48;;;;;;;2.38;1.73;;;;;;;;;;5116072;28;20203;-60
2022/05/27 09:29:27;;;;;;;1.88;1.30;;;;;;;;;;5116259;28;20218;-60
2022/05/27 09:31:57;;;;;;;1.60;1.48;;;;;;;;;;5115073;28;20205;-60
2022/05/27 09:34:26;;;;;;;1.17;1.08;;;;;;;;;;5114987;28;20213;-60
2022/05/27 09:36:55;;;;;;;1.30;1.20;;;;;;;;;;5115822;28;20604;-60
2022/05/27 09:39:24;;;;;;;1.40;1.30;;;;;;;;;;5113477;28;20217;-60
2022/05/27 09:41:57;;;;;;;2.05;1.40;;;;;;;;;;5111764;28;20199;-60
2022/05/27 09:44:31;;;;;;;1.60;1.27;;;;;;;;;;5113870;28;20491;-60
2022/05/27 09:46:59;;;;;;;1.80;1.40;;;;;;;;;;5113549;28;20603;-60
2022/05/27 09:49:26;;;;;;;1.73;1.30;;;;;;;;;;5114476;28;20257;-60
2022/05/27 09:51:53;;;;;;;2.30;1.10;;;;;;;;;;5115165;28;20579;-60
2022/05/27 09:54:29;;;;;;;1.33;1.23;;;;;;;;;;5116692;28;20504;-60
2022/05/27 09:56:59;;;;;;;1.20;1.10;;;;;;;;;;5116066;28;20683;-59
2022/05/27 09:59:29;;;;;;;1.65;1.50;;;;;;;;;;5116395;28;20195;-59
2022/05/27 10:02:14;;;;;;;1.55;1.25;;;;;;;;;;5116607;28;20203;-60
2022/05/27 10:04:50;;;;;;;1.50;1.30;;;;;;;;;;5115732;28;20721;-60
2022/05/27 10:07:24;;;;;;;1.98;1.25;;;;;;;;;;5116932;28;20287;-59
2022/05/27 10:09:51;;;;;;;1.42;1.15;;;;;;;;;;5116177;28;20236;-60
2022/05/27 10:12:28;;;;;;;1.67;1.30;;;;;;;;;;5115970;28;20195;-61
2022/05/27 10:14:57;;;;;;;1.30;1.13;;;;;;;;;;5115542;28;20198;-60
2022/05/27 10:17:29;;;;;;;1.75;1.17;;;;;;;;;;5114712;28;20838;-61
2022/05/27 10:20:14;;;;;;;1.55;1.45;;;;;;;;;;5114633;28;20207;-62
2022/05/27 10:22:41;;;;;;;1.38;1.20;;;;;;;;;;5115671;28;20210;-60
2022/05/27 10:25:11;;;;;;;2.33;1.38;;;;;;;;;;5115410;28;20194;-62
2022/05/27 10:27:39;;;;;;;1.65;1.27;;;;;;;;;;5113914;28;20260;-60
2022/05/27 10:30:12;;;;;;;1.35;1.20;;;;;;;;;;5114422;28;20640;-61
2022/05/27 10:32:41;;;;;;;1.73;1.48;;;;;;;;;;5115166;28;20305;-61
2022/05/27 10:35:10;;;;;;;1.50;1.20;;;;;;;;;;5115097;28;20203;-62
2022/05/27 10:37:47;;;;;;;1.73;1.40;;;;;;;;;;5114473;28;20222;-61
2022/05/27 10:40:22;;;;;;;1.45;1.20;;;;;;;;;;5114696;28;20302;-61
2022/05/27 10:42:52;;;;;;;1.70;1.60;;;;;;;;;;5114681;28;20206;-62
2022/05/27 10:45:25;;;;;;;2.17;1.50;;;;;;;;;;5114486;28;20271;-62
2022/05/27 10:48:11;;;;;;;2.13;1.60;;;;;;;;;;5114953;28;20199;-62
2022/05/27 10:50:40;;;;;;;1.58;1.48;;;;;;;;;;5114765;28;20199;-61
2022/05/27 10:53:16;;;;;;;2.85;1.50;;;;;;;;;;5114916;28;20213;-62
2022/05/27 10:55:49;;;;;;;2.08;1.50;;;;;;;;;;5114563;28;20213;-61
2022/05/27 11:04:22;;;;;;;1.88;1.55;;;;;;;;;;5081605;28;20213;-62
2022/05/27 11:06:56;;;;;;;1.90;1.50;;;;;;;;;;5117708;28;20206;-62
2022/05/27 11:09:30;;;;;;;2.08;1.50;;;;;;;;;;5118035;28;20258;-62
2022/05/27 11:12:01;;;;;;;2.00;1.55;;;;;;;;;;5118711;28;20198;-61
2022/05/27 11:17:25;;;;;;;1.95;1.70;;;;;;;;;;5118269;28;20770;-61
2022/05/27 11:20:04;;;;;;;2.08;1.67;;;;;;;;;;5119326;28;20483;-62
2022/05/27 11:22:35;;;;;;;2.38;1.65;;;;;;;;;;5117240;28;20710;-59
2022/05/27 11:25:19;;;;;;;2.00;1.50;;;;;;;;;;5118257;28;20213;-61
2022/05/27 11:27:53;;;;;;;2.15;1.77;;;;;;;;;;5117885;28;20470;-62
2022/05/27 11:30:32;;;;;;;1.92;1.67;;;;;;;;;;5118634;28;20227;-61
2022/05/27 11:33:14;;;;;;;1.77;1.55;;;;;;;;;;5117658;28;20372;-61
2022/05/27 11:35:52;;;;;;;1.85;1.70;;;;;;;;;;5115694;28;20202;-62
2022/05/27 11:38:35;;;;;;;1.67;1.58;;;;;;;;;;5118473;28;20207;-61
2022/05/27 11:41:09;;;;;;;1.70;1.60;;;;;;;;;;5117660;28;20221;-61
2022/05/27 11:43:48;;;;;;;2.15;1.60;;;;;;;;;;5117445;28;20213;-62
2022/05/27 11:46:26;;;;;;;2.17;1.60;;;;;;;;;;5117477;28;20213;-62
2022/05/27 11:48:56;;;;;;;1.98;1.60;;;;;;;;;;5118268;28;20218;-62
2022/05/27 11:51:32;;;;;;;2.35;1.70;;;;;;;;;;5118031;28;20195;-61
2022/05/27 11:54:09;;;;;;;1.60;1.50;;;;;;;;;;5117642;28;20205;-62
2022/05/27 11:56:44;;;;;;;1.90;1.60;;;;;;;;;;5117597;28;20257;-62
2022/05/27 11:59:14;;;;;;;1.98;1.70;;;;;;;;;;5116898;28;20574;-61
2022/05/27 12:01:45;;;;;;;1.85;1.58;;;;;;;;;;5116971;28;20203;-61
2022/05/27 12:04:15;;;;;;;1.83;1.60;;;;;;;;;;5117510;28;20215;-62
2022/05/27 12:06:46;;;;;;;2.00;1.80;;;;;;;;;;5116787;28;20199;-62
2022/05/27 12:09:17;;;;;;;1.95;1.42;;;;;;;;;;5117108;28;20601;-62
2022/05/27 12:11:46;;;;;;;1.70;1.50;;;;;;;;;;5116882;28;20214;-62
2022/05/27 12:14:17;;;;;;;2.30;1.60;;;;;;;;;;5116604;28;20195;-62
2022/05/27 12:16:48;;;;;;;1.63;1.50;;;;;;;;;;5116741;28;20194;-61
2022/05/27 12:19:18;;;;;;;1.75;1.63;;;;;;;;;;5116147;28;20270;-61
2022/05/27 12:21:48;;;;;;;2.17;1.60;;;;;;;;;;5116457;28;20203;-62
2022/05/27 12:24:19;;;;;;;1.80;1.60;;;;;;;;;;5115923;28;20787;-61
2022/05/27 12:26:49;;;;;;;1.70;1.33;;;;;;;;;;5115807;28;20487;-62
2022/05/27 12:29:16;;;;;;;2.35;1.65;;;;;;;;;;5115621;28;20331;-61
2022/05/27 12:31:45;;;;;;;1.52;1.35;;;;;;;;;;5116303;28;20213;-61
2022/05/27 12:34:31;;;;;;;1.77;1.65;;;;;;;;;;5116594;28;20203;-62
2022/05/27 12:37:01;;;;;;;1.95;1.60;;;;;;;;;;5116934;28;20213;-62
2022/05/27 12:39:29;;;;;;;1.67;1.30;;;;;;;;;;5115272;28;20199;-61
2022/05/27 12:42:08;;;;;;;1.77;1.50;;;;;;;;;;5116720;28;20225;-61
2022/05/27 12:44:36;;;;;;;2.28;1.58;;;;;;;;;;5116310;28;20230;-62
2022/05/27 12:47:04;;;;;;;2.67;1.70;;;;;;;;;;5117111;28;20298;-61
2022/05/27 12:49:36;;;;;;;1.75;1.33;;;;;;;;;;5116435;28;20237;-62
2022/05/27 12:52:06;;;;;;;2.00;1.60;;;;;;;;;;5116398;28;20316;-61
2022/05/27 12:54:52;;;;;;;1.52;1.35;;;;;;;;;;5115600;28;20198;-62
2022/05/27 13:00:57;;;;;;;2.03;1.60;;;;;;;;;;5115085;28;20252;-61
2022/05/27 13:03:46;;;;;;;1.83;1.52;;;;;;;;;;5115330;28;20259;-62
2022/05/27 13:06:17;;;;;;;1.83;1.40;;;;;;;;;;5111287;28;20214;-62
2022/05/27 13:08:47;;;;;;;1.85;1.33;;;;;;;;;;5114930;28;20214;-62
2022/05/27 13:11:16;;;;;;;1.75;1.33;;;;;;;;;;5115318;28;20202;-62
2022/05/27 13:13:43;;;;;;;1.33;1.23;;;;;;;;;;5115542;28;20229;-61
2022/05/27 13:16:23;;;;;;;1.40;1.20;;;;;;;;;;5115073;28;20570;-62
2022/05/27 13:18:53;;;;;;;1.70;1.60;;;;;;;;;;5113243;28;20264;-60
2022/05/27 13:21:33;;;;;;;1.33;1.23;;;;;;;;;;5114634;28;20781;-60
2022/05/27 13:24:03;;;;;;;2.80;1.40;;;;;;;;;;5113635;28;20195;-60
2022/05/27 13:26:38;;;;;;;1.70;1.52;;;;;;;;;;5113821;28;20474;-61
2022/05/27 13:29:17;;;;;;;1.75;1.42;;;;;;;;;;5113428;28;20248;-61
2022/05/27 13:31:45;;;;;;;1.40;1.30;;;;;;;;;;5114103;28;20616;-60
2022/05/27 13:34:16;;;;;;;1.67;1.20;;;;;;;;;;5115258;28;20618;-61
2022/05/27 13:36:52;;;;;;;1.50;1.40;;;;;;;;;;5114855;28;20216;-59
2022/05/27 13:39:23;;;;;;;2.00;1.33;;;;;;;;;;5112720;28;20276;-59
2022/05/27 13:41:51;;;;;;;1.40;1.30;;;;;;;;;;5112798;28;20222;-60
2022/05/27 13:44:21;;;;;;;1.40;1.30;;;;;;;;;;5114291;28;20214;-61
2022/05/27 13:46:50;;;;;;;1.90;1.15;;;;;;;;;;5113879;28;20239;-60
2022/05/27 13:49:29;;;;;;;1.25;1.15;;;;;;;;;;5113267;28;20287;-62
2022/05/27 13:51:57;;;;;;;1.30;1.20;;;;;;;;;;5112491;28;20574;-61
2022/05/27 13:54:31;;;;;;;1.40;1.30;;;;;;;;;;5111310;28;20202;-60
2022/05/27 13:57:01;;;;;;;1.30;1.20;;;;;;;;;;5111922;28;20250;-62
2022/05/27 13:59:30;;;;;;;1.10;1.00;;;;;;;;;;5112657;28;20291;-60
2022/05/27 14:01:59;;;;;;;1.60;1.35;;;;;;;;;;5111545;28;20195;-61
2022/05/27 14:04:29;;;;;;;1.48;1.33;;;;;;;;;;5112432;28;20222;-62
2022/05/27 14:06:56;;;;;;;1.70;1.30;;;;;;;;;;5112385;28;20195;-61
2022/05/27 14:09:27;;;;;;;1.20;1.02;;;;;;;;;;5112350;28;20315;-61
2022/05/27 14:11:57;;;;;;;1.80;1.45;;;;;;;;;;5111937;28;20211;-62
2022/05/27 14:14:26;;;;;;;1.48;1.38;;;;;;;;;;5110991;28;20213;-62
2022/05/27 14:16:54;;;;;;;1.52;1.33;;;;;;;;;;5111066;28;20268;-62
2022/05/27 14:19:23;;;;;;;1.30;1.20;;;;;;;;;;5111336;28;20199;-61
2022/05/27 14:24:40;;;;;;;1.30;1.20;;;;;;;;;;5099694;28;20198;-62
2022/05/27 14:27:13;;;;;;;1.30;1.20;;;;;;;;;;5112581;28;20210;-62
2022/05/27 14:29:40;;;;;;;1.30;1.10;;;;;;;;;;5112385;28;20241;-62
2022/05/27 14:32:09;;;;;;;1.33;1.13;;;;;;;;;;5112861;28;20203;-60
2022/05/27 14:34:37;;;;;;;1.30;1.17;;;;;;;;;;5113620;28;20233;-61
2022/05/27 14:37:10;;;;;;;1.10;0.90;;;;;;;;;;5113521;28;20568;-62
2022/05/27 14:39:38;;;;;;;1.10;1.00;;;;;;;;;;5112502;28;20209;-61
2022/05/27 14:42:07;;;;;;;0.98;0.98;;;;;;;;;;5112267;28;20198;-61
2022/05/27 14:44:40;;;;;;;1.20;1.10;;;;;;;;;;5112831;28;20213;-62
2022/05/27 14:47:11;;;;;;;1.08;0.98;;;;;;;;;;5111762;28;20211;-61
2022/05/27 14:49:43;;;;;;;0.95;0.95;;;;;;;;;;5110109;28;20288;-62
2022/05/27 14:52:15;;;;;;;1.40;1.10;;;;;;;;;;5110347;28;20198;-60
2022/05/27 14:54:45;;;;;;;1.13;1.00;;;;;;;;;;5112028;28;20435;-62
2022/05/27 14:57:17;;;;;;;1.38;1.20;;;;;;;;;;5110856;28;20423;-62
2022/05/27 14:59:46;;;;;;;1.52;1.30;;;;;;;;;;5111792;28;20226;-60
2022/05/27 15:02:21;;;;;;;1.23;1.13;;;;;;;;;;5110563;28;20213;-62
2022/05/27 15:04:55;;;;;;;1.20;1.10;;;;;;;;;;5111385;28;20206;-60
2022/05/27 15:07:24;;;;;;;1.40;1.00;;;;;;;;;;5109782;28;20194;-61
2022/05/27 15:09:59;;;;;;;1.35;1.10;;;;;;;;;;5111718;28;20460;-60
2022/05/27 15:12:30;;;;;;;1.30;1.10;;;;;;;;;;5111256;28;20422;-60
2022/05/27 15:14:57;;;;;;;1.30;1.15;;;;;;;;;;5113136;28;20228;-60
2022/05/27 15:17:27;;;;;;;1.30;1.20;;;;;;;;;;5111113;28;20228;-62
2022/05/27 15:19:58;;;;;;;1.05;0.95;;;;;;;;;;5111467;28;20546;-62
2022/05/27 15:22:25;;;;;;;1.30;1.20;;;;;;;;;;5111297;28;20289;-61
2022/05/27 15:24:55;;;;;;;1.30;1.20;;;;;;;;;;5110566;28;20477;-60
2022/05/27 15:33:09;;;;;;;1.20;1.10;;;;;;;;;;5110829;28;20203;-62
2022/05/27 15:35:43;;;;;;;1.27;1.17;;;;;;;;;;5111462;28;20426;-61
2022/05/27 15:38:11;;;;;;;1.40;1.30;;;;;;;;;;5111467;28;20419;-60
2022/05/27 15:40:40;;;;;;;2.03;1.23;;;;;;;;;;5111511;28;20276;-62